Latest Observation

23 Stations

10 Minute Data | America/Los_Angeles
as of 5/20/22 6:08 AM PDT
Station Date Time Temp (°F) Dew Pt (°F) RH (%) Wind Spd (mph) Wind Dir (°) Wind Gust (mph) Wind Gst Dir (°) Daily Max Temp (°F) Daily Min Temp (°F) Daily Max Wind (mph) Max Wind Dir (°)
Thomas Mountain 5/20/22 0600 42.8   24.0 41.6   13.6 95   72 2.2 E | 88 4.7 ENE | 57 58.4 42.5 17.8 WNW | 285
Red Mountain 5/20/22 0600 43.9   25.5 43.9   9.9 100   73 6.4 WSW | 252 9.0 W | 263 52.4 43.7 11.4 WSW | 242
Coyote Canyon 5/20/22 0600 45.7   23.1 45.7   13.8 100   75 19.0 E | 84 28.4 E | 84 50.0 45.5 31.8 E | 82
Pinyon 5/20/22 0600 65.4   3.4 36.5   2.8 34   7 29.8 SW | 229 43.3 SSW | 212 70.0 60.6 41.5 SW | 230
Aguanga Barbara Trail 5/20/22 0600 48.3   12.1 48.3   14.0 100   62 5.8 W | 259 9.4 WSW | 254 50.3 48.0 9.6 W | 267
SCE Idyllwild Ridge 5/20/22 0600 59.9   4.7 29.1   2.2 31   7 1.5 E | 84 7.6 SE | 125 63.4 59.5 11.8 NNE | 14
SCE Idyllwild Hwy 5/20/22 0600 52.7   3.2 51.7   8.1 96   16 1.6 NNW | 335 3.5 WNW | 303 56.5 52.5 6.9 NW | 319
SCE Apple Canyon 5/20/22 0600 44.2   24.2 43.8   15.7 99   77 1.9 S | 177 4.4 SSE | 152 52.5 44.0 8.9 WNW | 302
SCE Keen Ridge 5/20/22 0600 43.3   24.6 43.3   13.7 100   76 14.7 NW | 306 19.1 NW | 305 50.8 42.6 20.0 WNW | 288
SCE Aguanga 5/20/22 0600 51.8   2.8 51.3   2.4 98   17 4.4 NW | 317 8.0 NW | 313 54.6 51.6 8.0 NW | 313
SCE Butterfield Valley 5/20/22 0600 53.9   5.3 53.5   5.4 98   0 4.7 W | 264 6.9 WSW | 256 55.4 53.7 6.9 W | 278
SCE Anza Rd 5/20/22 0600 54.8   2.9 54.2   2.5 98   1 4.7 W | 264 7.7 WSW | 249 56.0 54.5 10.1 WSW | 254
SCE Wilson Valley Rd 5/20/22 0600 51.1   2.9 51.1   3.1 100   20 3.3 WNW | 297 5.5 WNW | 282 52.6 50.9 7.2 NW | 309
SCE Weber Valley 5/20/22 0600 49.0   8.5 49.0   9.0 100   48 3.8 WNW | 299 6.0 WNW | 296 51.0 48.8 7.2 NW | 307
SCE Red Mountain Rd 5/20/22 0600 47.6   22.6 47.5   11.3 100   71 3.8 W | 275 7.5 WNW | 282 49.9 47.2 9.1 SW | 219
SCE Brown Canyon 5/20/22 0600 52.5   0.9 51.4   4.2 96   11 4.3 WNW | 299 6.0 WNW | 293 55.3 52.4 8.6 WNW | 284
SCE Cedar Ave 5/20/22 0600 55.2   2.8 51.0   3.3 86   2 6.2 SSW | 193 9.4 SSW | 198 57.3 54.9 10.7 S | 184
SCE Anderson Dr 5/20/22 0600 54.5   0.7 51.4   0.0 89   2 3.8 SW | 218 7.7 SSW | 192 56.8 54.4 11.0 WSW | 248
SCE Pachea Trail 5/20/22 0600 52.5   2.3 51.4   1.3 96   3 4.8 SSW | 206 7.2 SSW | 193 54.8 52.4 11.1 SW | 226
SCE Painted Canyon Rd 5/20/22 0600 65.7   7.3 51.9   4.1 61   20 2.2 WSW | 257 3.1 NW | 315 72.0 65.0 6.4 SW | 216
Oak Grove 5/20/22 0600 50.6   4.7 50.3   13.3 99   49 5.1 WNW | 294 6.5 WNW | 296 52.2 50.6 8.4 WNW | 298
Chihuahua Valley 5/20/22 0540 45.5   18.6 44.9   13.4 98   69 3.0 SSE | 159 5.3 SSW | 192 51.7 44.0 7.6 E | 98
Sunshine Summit 5/20/22 0600 48.8   10.1 48.8   11.9 100   56 1.4 S | 180 2.7 SSE | 167 50.2 48.3 12.0 WNW | 291
Max     65.7 54.2 100 29.8 - 43.3 - 72.0 65.0 41.5 -
Avg     51.3 47.5 90 6.0 - 9.5 - - - - -
Min     42.8 29.1 31 1.4 - 2.7 - 49.9 42.5 6.4 -